Vanetia, Texas
Current Conditions -  °F | °C
As of 2:35 PM on Friday 21 Nov 2014 (Local Time) from KLHB Reporting Station
Overcast Overcast  
Wind Chill: 20°   Ceiling: 1000
Heat Index: 20°   Visibility: 10mi
Dew Point: 18°   Wind: 6mph
Humidity: 89%   Direction: 110°ESE
Pressure: 30.07"   Gusts: NA
Location:  31.2206°N, 96.2362°W
Report Text: KLHB 212035Z AUTO 11005KT 10SM OVC010 20/18 A3007 RMK AO2 T01980180
Loading
Personal Weather Stations






























Interactive Weather Map New forecast layout! Learn more

10-Day Weather Forecast

Advertisements
Track Severe Weather on mobile